sensor_id;sensor_type;location;lat;lon;timestamp;P1;durP1;ratioP1;P2;durP2;ratioP2
51010;SDS011;37038;50.182;8.624;2023-03-23T00:00:11;2.00;;;1.40;;
51010;SDS011;37038;50.182;8.624;2023-03-23T00:03:10;3.40;;;1.65;;
51010;SDS011;37038;50.182;8.624;2023-03-23T00:06:01;3.78;;;1.98;;
51010;SDS011;37038;50.182;8.624;2023-03-23T00:08:52;2.08;;;1.40;;
51010;SDS011;37038;50.182;8.624;2023-03-23T00:11:48;1.88;;;1.63;;
51010;SDS011;37038;50.182;8.624;2023-03-23T00:14:36;1.75;;;1.30;;
51010;SDS011;37038;50.182;8.624;2023-03-23T00:17:27;2.45;;;1.42;;
51010;SDS011;37038;50.182;8.624;2023-03-23T00:20:15;1.65;;;1.20;;
51010;SDS011;37038;50.182;8.624;2023-03-23T00:23:02;2.35;;;1.60;;
51010;SDS011;37038;50.182;8.624;2023-03-23T00:25:54;3.65;;;1.40;;
51010;SDS011;37038;50.182;8.624;2023-03-23T00:28:42;3.97;;;2.00;;
51010;SDS011;37038;50.182;8.624;2023-03-23T00:31:32;1.80;;;1.15;;
51010;SDS011;37038;50.182;8.624;2023-03-23T00:34:21;2.28;;;1.48;;
51010;SDS011;37038;50.182;8.624;2023-03-23T00:37:10;2.17;;;1.50;;
51010;SDS011;37038;50.182;8.624;2023-03-23T00:39:57;3.00;;;1.33;;
51010;SDS011;37038;50.182;8.624;2023-03-23T00:42:46;2.72;;;1.50;;
51010;SDS011;37038;50.182;8.624;2023-03-23T00:45:36;3.80;;;1.50;;
51010;SDS011;37038;50.182;8.624;2023-03-23T00:48:23;3.75;;;1.58;;
51010;SDS011;37038;50.182;8.624;2023-03-23T00:51:11;1.83;;;1.45;;
51010;SDS011;37038;50.182;8.624;2023-03-23T00:53:58;3.03;;;1.52;;
51010;SDS011;37038;50.182;8.624;2023-03-23T00:56:44;2.10;;;1.40;;
51010;SDS011;37038;50.182;8.624;2023-03-23T00:59:34;1.98;;;1.35;;
51010;SDS011;37038;50.182;8.624;2023-03-23T01:02:21;1.92;;;1.70;;
51010;SDS011;37038;50.182;8.624;2023-03-23T01:05:11;2.10;;;1.50;;
51010;SDS011;37038;50.182;8.624;2023-03-23T01:07:58;2.58;;;1.95;;
51010;SDS011;37038;50.182;8.624;2023-03-23T01:10:45;4.05;;;1.73;;
51010;SDS011;37038;50.182;8.624;2023-03-23T01:13:49;2.30;;;1.70;;
51010;SDS011;37038;50.182;8.624;2023-03-23T01:16:36;3.58;;;1.88;;
51010;SDS011;37038;50.182;8.624;2023-03-23T01:19:23;1.40;;;1.30;;
51010;SDS011;37038;50.182;8.624;2023-03-23T01:22:10;2.13;;;1.65;;
51010;SDS011;37038;50.182;8.624;2023-03-23T01:24:57;2.63;;;1.38;;
51010;SDS011;37038;50.182;8.624;2023-03-23T01:27:44;1.63;;;1.20;;
51010;SDS011;37038;50.182;8.624;2023-03-23T01:30:31;3.05;;;1.67;;
51010;SDS011;37038;50.182;8.624;2023-03-23T01:33:17;5.00;;;1.92;;
51010;SDS011;37038;50.182;8.624;2023-03-23T01:36:05;2.83;;;1.85;;
51010;SDS011;37038;50.182;8.624;2023-03-23T01:39:05;2.00;;;1.50;;
51010;SDS011;37038;50.182;8.624;2023-03-23T01:41:52;1.92;;;1.52;;
51010;SDS011;37038;50.182;8.624;2023-03-23T01:47:25;1.92;;;1.40;;
51010;SDS011;37038;50.182;8.624;2023-03-23T01:50:12;2.35;;;1.67;;
51010;SDS011;37038;50.182;8.624;2023-03-23T01:52:59;3.33;;;1.63;;
51010;SDS011;37038;50.182;8.624;2023-03-23T01:55:49;1.98;;;1.73;;
51010;SDS011;37038;50.182;8.624;2023-03-23T01:58:39;2.72;;;1.77;;
51010;SDS011;37038;50.182;8.624;2023-03-23T02:01:27;3.03;;;1.80;;
51010;SDS011;37038;50.182;8.624;2023-03-23T02:04:15;2.47;;;1.50;;
51010;SDS011;37038;50.182;8.624;2023-03-23T02:07:03;1.55;;;1.30;;
51010;SDS011;37038;50.182;8.624;2023-03-23T02:09:50;3.78;;;1.60;;
51010;SDS011;37038;50.182;8.624;2023-03-23T02:12:38;1.63;;;1.30;;
51010;SDS011;37038;50.182;8.624;2023-03-23T02:15:25;2.30;;;1.60;;
51010;SDS011;37038;50.182;8.624;2023-03-23T02:18:38;2.75;;;1.40;;
51010;SDS011;37038;50.182;8.624;2023-03-23T02:24:57;1.60;;;1.50;;
51010;SDS011;37038;50.182;8.624;2023-03-23T02:31:37;1.50;;;1.40;;
51010;SDS011;37038;50.182;8.624;2023-03-23T02:37:53;2.10;;;1.90;;
51010;SDS011;37038;50.182;8.624;2023-03-23T02:40:49;2.97;;;1.70;;
51010;SDS011;37038;50.182;8.624;2023-03-23T02:43:39;2.25;;;1.55;;
51010;SDS011;37038;50.182;8.624;2023-03-23T02:46:30;2.22;;;1.55;;
51010;SDS011;37038;50.182;8.624;2023-03-23T02:49:17;1.85;;;1.60;;
51010;SDS011;37038;50.182;8.624;2023-03-23T02:52:14;1.70;;;1.60;;
51010;SDS011;37038;50.182;8.624;2023-03-23T02:55:06;1.63;;;1.52;;
51010;SDS011;37038;50.182;8.624;2023-03-23T02:57:57;2.45;;;1.63;;
51010;SDS011;37038;50.182;8.624;2023-03-23T03:00:45;3.22;;;2.20;;
51010;SDS011;37038;50.182;8.624;2023-03-23T03:03:35;2.38;;;1.80;;
51010;SDS011;37038;50.182;8.624;2023-03-23T03:06:26;2.25;;;1.58;;
51010;SDS011;37038;50.182;8.624;2023-03-23T03:10:37;2.67;;;1.73;;
51010;SDS011;37038;50.182;8.624;2023-03-23T03:13:39;3.30;;;1.90;;
51010;SDS011;37038;50.182;8.624;2023-03-23T03:16:47;8.43;;;2.33;;
51010;SDS011;37038;50.182;8.624;2023-03-23T03:19:47;4.00;;;1.77;;
51010;SDS011;37038;50.182;8.624;2023-03-23T03:22:44;3.40;;;1.90;;
51010;SDS011;37038;50.182;8.624;2023-03-23T03:25:33;3.42;;;1.88;;
51010;SDS011;37038;50.182;8.624;2023-03-23T03:28:21;3.40;;;2.10;;
51010;SDS011;37038;50.182;8.624;2023-03-23T03:31:08;1.92;;;1.83;;
51010;SDS011;37038;50.182;8.624;2023-03-23T03:33:58;2.95;;;1.92;;
51010;SDS011;37038;50.182;8.624;2023-03-23T03:36:47;3.88;;;2.20;;
51010;SDS011;37038;50.182;8.624;2023-03-23T03:39:36;2.75;;;2.00;;
51010;SDS011;37038;50.182;8.624;2023-03-23T03:42:24;3.20;;;1.65;;
51010;SDS011;37038;50.182;8.624;2023-03-23T03:45:12;4.07;;;2.20;;
51010;SDS011;37038;50.182;8.624;2023-03-23T03:48:02;2.97;;;2.25;;
51010;SDS011;37038;50.182;8.624;2023-03-23T03:50:49;4.97;;;2.63;;
51010;SDS011;37038;50.182;8.624;2023-03-23T03:53:38;4.93;;;2.50;;
51010;SDS011;37038;50.182;8.624;2023-03-23T03:56:24;7.65;;;1.83;;
51010;SDS011;37038;50.182;8.624;2023-03-23T03:59:13;3.65;;;2.38;;
51010;SDS011;37038;50.182;8.624;2023-03-23T04:02:00;4.95;;;2.65;;
51010;SDS011;37038;50.182;8.624;2023-03-23T04:04:47;5.00;;;2.10;;
51010;SDS011;37038;50.182;8.624;2023-03-23T04:07:35;2.50;;;2.28;;
51010;SDS011;37038;50.182;8.624;2023-03-23T04:10:24;3.80;;;1.77;;
51010;SDS011;37038;50.182;8.624;2023-03-23T04:15:53;4.95;;;3.03;;
51010;SDS011;37038;50.182;8.624;2023-03-23T04:18:40;2.60;;;1.90;;
51010;SDS011;37038;50.182;8.624;2023-03-23T04:21:28;4.72;;;1.88;;
51010;SDS011;37038;50.182;8.624;2023-03-23T04:24:15;2.25;;;1.92;;
51010;SDS011;37038;50.182;8.624;2023-03-23T04:27:02;2.03;;;1.83;;
51010;SDS011;37038;50.182;8.624;2023-03-23T04:29:49;3.92;;;2.05;;
51010;SDS011;37038;50.182;8.624;2023-03-23T04:32:36;2.53;;;2.00;;
51010;SDS011;37038;50.182;8.624;2023-03-23T04:35:27;3.50;;;2.10;;
51010;SDS011;37038;50.182;8.624;2023-03-23T04:38:15;3.75;;;2.38;;
51010;SDS011;37038;50.182;8.624;2023-03-23T04:41:06;3.15;;;2.10;;
51010;SDS011;37038;50.182;8.624;2023-03-23T04:43:53;3.95;;;2.22;;
51010;SDS011;37038;50.182;8.624;2023-03-23T04:46:43;4.45;;;2.60;;
51010;SDS011;37038;50.182;8.624;2023-03-23T04:49:31;3.55;;;2.05;;
51010;SDS011;37038;50.182;8.624;2023-03-23T04:52:18;3.38;;;2.20;;
51010;SDS011;37038;50.182;8.624;2023-03-23T04:55:07;3.95;;;2.20;;
51010;SDS011;37038;50.182;8.624;2023-03-23T04:57:58;4.45;;;2.33;;
51010;SDS011;37038;50.182;8.624;2023-03-23T05:00:48;4.47;;;2.30;;
51010;SDS011;37038;50.182;8.624;2023-03-23T05:03:35;2.40;;;2.03;;
51010;SDS011;37038;50.182;8.624;2023-03-23T05:06:22;3.17;;;1.95;;
51010;SDS011;37038;50.182;8.624;2023-03-23T05:09:09;2.80;;;1.95;;
51010;SDS011;37038;50.182;8.624;2023-03-23T05:11:56;2.53;;;1.98;;
51010;SDS011;37038;50.182;8.624;2023-03-23T05:14:45;2.25;;;2.03;;
51010;SDS011;37038;50.182;8.624;2023-03-23T05:17:33;2.55;;;2.33;;
51010;SDS011;37038;50.182;8.624;2023-03-23T05:20:20;2.38;;;2.08;;
51010;SDS011;37038;50.182;8.624;2023-03-23T05:23:08;4.57;;;2.03;;
51010;SDS011;37038;50.182;8.624;2023-03-23T05:25:57;3.10;;;2.28;;
51010;SDS011;37038;50.182;8.624;2023-03-23T05:28:48;3.92;;;2.28;;
51010;SDS011;37038;50.182;8.624;2023-03-23T05:31:38;2.47;;;2.28;;
51010;SDS011;37038;50.182;8.624;2023-03-23T05:34:26;3.03;;;2.22;;
51010;SDS011;37038;50.182;8.624;2023-03-23T05:37:12;3.53;;;2.40;;
51010;SDS011;37038;50.182;8.624;2023-03-23T05:39:59;3.15;;;2.10;;
51010;SDS011;37038;50.182;8.624;2023-03-23T05:42:51;2.78;;;2.00;;
51010;SDS011;37038;50.182;8.624;2023-03-23T05:45:38;3.85;;;2.33;;
51010;SDS011;37038;50.182;8.624;2023-03-23T05:48:25;2.63;;;2.42;;
51010;SDS011;37038;50.182;8.624;2023-03-23T05:51:12;4.00;;;2.60;;
51010;SDS011;37038;50.182;8.624;2023-03-23T05:53:59;2.30;;;2.00;;
51010;SDS011;37038;50.182;8.624;2023-03-23T05:56:46;3.15;;;2.58;;
51010;SDS011;37038;50.182;8.624;2023-03-23T05:59:35;5.10;;;2.70;;
51010;SDS011;37038;50.182;8.624;2023-03-23T06:02:22;3.38;;;2.40;;
51010;SDS011;37038;50.182;8.624;2023-03-23T06:05:10;3.47;;;2.30;;
51010;SDS011;37038;50.182;8.624;2023-03-23T06:07:57;2.72;;;2.50;;
51010;SDS011;37038;50.182;8.624;2023-03-23T06:10:45;3.60;;;2.50;;
51010;SDS011;37038;50.182;8.624;2023-03-23T06:13:31;5.97;;;2.40;;
51010;SDS011;37038;50.182;8.624;2023-03-23T06:16:18;3.33;;;2.80;;
51010;SDS011;37038;50.182;8.624;2023-03-23T06:19:06;2.75;;;2.50;;
51010;SDS011;37038;50.182;8.624;2023-03-23T06:21:56;2.75;;;2.35;;
51010;SDS011;37038;50.182;8.624;2023-03-23T06:24:43;4.18;;;2.60;;
51010;SDS011;37038;50.182;8.624;2023-03-23T06:27:30;4.40;;;2.50;;
51010;SDS011;37038;50.182;8.624;2023-03-23T06:30:17;2.72;;;2.40;;
51010;SDS011;37038;50.182;8.624;2023-03-23T06:33:04;3.00;;;2.70;;
51010;SDS011;37038;50.182;8.624;2023-03-23T06:35:51;4.38;;;2.60;;
51010;SDS011;37038;50.182;8.624;2023-03-23T06:38:38;3.42;;;2.45;;
51010;SDS011;37038;50.182;8.624;2023-03-23T06:41:25;2.58;;;2.22;;
51010;SDS011;37038;50.182;8.624;2023-03-23T06:44:12;3.38;;;2.60;;
51010;SDS011;37038;50.182;8.624;2023-03-23T06:46:59;4.07;;;2.90;;
51010;SDS011;37038;50.182;8.624;2023-03-23T06:49:48;3.10;;;2.80;;
51010;SDS011;37038;50.182;8.624;2023-03-23T06:52:35;3.65;;;2.78;;
51010;SDS011;37038;50.182;8.624;2023-03-23T06:55:22;5.55;;;2.90;;
51010;SDS011;37038;50.182;8.624;2023-03-23T06:58:08;2.95;;;2.40;;
51010;SDS011;37038;50.182;8.624;2023-03-23T07:00:56;3.05;;;2.75;;
51010;SDS011;37038;50.182;8.624;2023-03-23T07:03:44;3.20;;;2.85;;
51010;SDS011;37038;50.182;8.624;2023-03-23T07:06:31;4.35;;;2.92;;
51010;SDS011;37038;50.182;8.624;2023-03-23T07:09:21;4.43;;;3.05;;
51010;SDS011;37038;50.182;8.624;2023-03-23T07:12:28;2.97;;;2.70;;
51010;SDS011;37038;50.182;8.624;2023-03-23T07:15:35;3.30;;;2.85;;
51010;SDS011;37038;50.182;8.624;2023-03-23T07:18:25;4.03;;;2.50;;
51010;SDS011;37038;50.182;8.624;2023-03-23T07:21:15;3.20;;;2.90;;
51010;SDS011;37038;50.182;8.624;2023-03-23T07:24:03;3.03;;;2.83;;
51010;SDS011;37038;50.182;8.624;2023-03-23T07:26:53;3.95;;;2.78;;
51010;SDS011;37038;50.182;8.624;2023-03-23T07:29:40;3.17;;;2.88;;
51010;SDS011;37038;50.182;8.624;2023-03-23T07:32:27;4.80;;;2.72;;
51010;SDS011;37038;50.182;8.624;2023-03-23T07:35:14;3.38;;;3.03;;
51010;SDS011;37038;50.182;8.624;2023-03-23T07:41:51;5.22;;;3.30;;
51010;SDS011;37038;50.182;8.624;2023-03-23T07:44:38;4.80;;;2.83;;
51010;SDS011;37038;50.182;8.624;2023-03-23T07:47:25;4.22;;;3.45;;
51010;SDS011;37038;50.182;8.624;2023-03-23T07:50:12;4.38;;;3.97;;
51010;SDS011;37038;50.182;8.624;2023-03-23T07:52:59;4.70;;;4.03;;
51010;SDS011;37038;50.182;8.624;2023-03-23T07:55:46;4.65;;;3.45;;
51010;SDS011;37038;50.182;8.624;2023-03-23T07:58:33;3.20;;;3.00;;
51010;SDS011;37038;50.182;8.624;2023-03-23T08:01:21;4.57;;;3.60;;
51010;SDS011;37038;50.182;8.624;2023-03-23T08:04:09;5.55;;;3.95;;
51010;SDS011;37038;50.182;8.624;2023-03-23T08:06:56;3.97;;;3.58;;
51010;SDS011;37038;50.182;8.624;2023-03-23T08:09:43;4.32;;;2.97;;
51010;SDS011;37038;50.182;8.624;2023-03-23T08:12:31;4.10;;;3.15;;
51010;SDS011;37038;50.182;8.624;2023-03-23T08:15:17;4.60;;;3.28;;
51010;SDS011;37038;50.182;8.624;2023-03-23T08:18:05;5.25;;;2.97;;
51010;SDS011;37038;50.182;8.624;2023-03-23T08:20:51;5.30;;;3.10;;
51010;SDS011;37038;50.182;8.624;2023-03-23T08:23:39;3.72;;;3.40;;
51010;SDS011;37038;50.182;8.624;2023-03-23T08:26:28;5.78;;;3.33;;
51010;SDS011;37038;50.182;8.624;2023-03-23T08:29:15;7.93;;;3.10;;
51010;SDS011;37038;50.182;8.624;2023-03-23T08:32:02;6.13;;;3.20;;
51010;SDS011;37038;50.182;8.624;2023-03-23T08:34:49;5.07;;;2.97;;
51010;SDS011;37038;50.182;8.624;2023-03-23T08:37:37;5.72;;;3.70;;
51010;SDS011;37038;50.182;8.624;2023-03-23T08:40:24;4.80;;;3.33;;
51010;SDS011;37038;50.182;8.624;2023-03-23T08:43:12;3.95;;;3.08;;
51010;SDS011;37038;50.182;8.624;2023-03-23T08:45:59;4.03;;;3.05;;
51010;SDS011;37038;50.182;8.624;2023-03-23T08:48:52;4.60;;;2.92;;
51010;SDS011;37038;50.182;8.624;2023-03-23T08:51:40;4.88;;;3.15;;
51010;SDS011;37038;50.182;8.624;2023-03-23T08:54:28;6.53;;;3.38;;
51010;SDS011;37038;50.182;8.624;2023-03-23T08:57:16;4.78;;;2.67;;
51010;SDS011;37038;50.182;8.624;2023-03-23T09:00:05;3.38;;;3.05;;
51010;SDS011;37038;50.182;8.624;2023-03-23T09:03:03;4.18;;;3.08;;
51010;SDS011;37038;50.182;8.624;2023-03-23T09:05:51;3.28;;;2.97;;
51010;SDS011;37038;50.182;8.624;2023-03-23T09:08:39;4.03;;;3.35;;
51010;SDS011;37038;50.182;8.624;2023-03-23T09:11:25;4.13;;;2.80;;
51010;SDS011;37038;50.182;8.624;2023-03-23T09:14:12;4.00;;;2.90;;
51010;SDS011;37038;50.182;8.624;2023-03-23T09:17:02;3.25;;;2.90;;
51010;SDS011;37038;50.182;8.624;2023-03-23T09:19:49;3.70;;;2.95;;
51010;SDS011;37038;50.182;8.624;2023-03-23T09:22:38;3.20;;;2.70;;
51010;SDS011;37038;50.182;8.624;2023-03-23T09:25:36;3.88;;;2.85;;
51010;SDS011;37038;50.182;8.624;2023-03-23T09:28:23;3.67;;;3.20;;
51010;SDS011;37038;50.182;8.624;2023-03-23T09:31:10;7.82;;;2.85;;
51010;SDS011;37038;50.182;8.624;2023-03-23T09:33:59;3.47;;;2.65;;
51010;SDS011;37038;50.182;8.624;2023-03-23T09:36:47;3.83;;;3.17;;
51010;SDS011;37038;50.182;8.624;2023-03-23T09:39:35;4.72;;;2.90;;
51010;SDS011;37038;50.182;8.624;2023-03-23T09:45:39;3.38;;;2.90;;
51010;SDS011;37038;50.182;8.624;2023-03-23T09:48:36;3.75;;;2.90;;
51010;SDS011;37038;50.182;8.624;2023-03-23T09:51:50;4.00;;;2.90;;
51010;SDS011;37038;50.182;8.624;2023-03-23T09:54:46;5.18;;;2.85;;
51010;SDS011;37038;50.182;8.624;2023-03-23T09:57:45;3.78;;;2.40;;
51010;SDS011;37038;50.182;8.624;2023-03-23T10:01:00;5.25;;;2.80;;
51010;SDS011;37038;50.182;8.624;2023-03-23T10:03:56;4.70;;;2.70;;
51010;SDS011;37038;50.182;8.624;2023-03-23T10:06:56;3.00;;;2.58;;
51010;SDS011;37038;50.182;8.624;2023-03-23T10:10:00;4.60;;;3.00;;
51010;SDS011;37038;50.182;8.624;2023-03-23T10:12:50;3.92;;;2.75;;
51010;SDS011;37038;50.182;8.624;2023-03-23T10:15:44;1.50;;;1.40;;
51010;SDS011;37038;50.182;8.624;2023-03-23T10:18:37;1.42;;;1.10;;
51010;SDS011;37038;50.182;8.624;2023-03-23T10:21:32;1.55;;;1.40;;
51010;SDS011;37038;50.182;8.624;2023-03-23T10:27:40;1.55;;;1.27;;
51010;SDS011;37038;50.182;8.624;2023-03-23T10:30:55;2.08;;;1.20;;
51010;SDS011;37038;50.182;8.624;2023-03-23T10:33:47;1.83;;;1.63;;
51010;SDS011;37038;50.182;8.624;2023-03-23T10:36:38;2.72;;;1.80;;
51010;SDS011;37038;50.182;8.624;2023-03-23T10:42:33;2.20;;;2.00;;
51010;SDS011;37038;50.182;8.624;2023-03-23T10:45:25;4.22;;;1.42;;
51010;SDS011;37038;50.182;8.624;2023-03-23T10:48:25;2.22;;;1.77;;
51010;SDS011;37038;50.182;8.624;2023-03-23T10:51:19;1.83;;;1.63;;
51010;SDS011;37038;50.182;8.624;2023-03-23T10:54:12;3.50;;;2.13;;
51010;SDS011;37038;50.182;8.624;2023-03-23T10:57:23;2.08;;;1.88;;
51010;SDS011;37038;50.182;8.624;2023-03-23T11:06:02;2.00;;;1.83;;
51010;SDS011;37038;50.182;8.624;2023-03-23T11:11:49;2.40;;;1.77;;
51010;SDS011;37038;50.182;8.624;2023-03-23T11:14:40;2.67;;;2.00;;
51010;SDS011;37038;50.182;8.624;2023-03-23T11:17:28;2.30;;;2.05;;
51010;SDS011;37038;50.182;8.624;2023-03-23T11:20:19;2.22;;;2.03;;
51010;SDS011;37038;50.182;8.624;2023-03-23T11:23:10;1.90;;;1.65;;
51010;SDS011;37038;50.182;8.624;2023-03-23T11:26:14;2.33;;;2.10;;
51010;SDS011;37038;50.182;8.624;2023-03-23T11:32:10;1.98;;;1.88;;
51010;SDS011;37038;50.182;8.624;2023-03-23T11:35:01;2.53;;;2.33;;
51010;SDS011;37038;50.182;8.624;2023-03-23T11:37:56;2.85;;;2.17;;
51010;SDS011;37038;50.182;8.624;2023-03-23T11:40:47;2.38;;;2.17;;
51010;SDS011;37038;50.182;8.624;2023-03-23T11:43:39;3.67;;;1.77;;
51010;SDS011;37038;50.182;8.624;2023-03-23T11:46:34;3.70;;;2.75;;
51010;SDS011;37038;50.182;8.624;2023-03-23T11:50:12;1.98;;;1.73;;
51010;SDS011;37038;50.182;8.624;2023-03-23T11:53:10;2.75;;;1.77;;
51010;SDS011;37038;50.182;8.624;2023-03-23T11:59:28;2.40;;;1.50;;
51010;SDS011;37038;50.182;8.624;2023-03-23T12:05:27;1.40;;;1.30;;
51010;SDS011;37038;50.182;8.624;2023-03-23T12:09:07;3.60;;;1.33;;
51010;SDS011;37038;50.182;8.624;2023-03-23T12:19:19;1.67;;;1.33;;
51010;SDS011;37038;50.182;8.624;2023-03-23T12:22:40;3.28;;;1.25;;
51010;SDS011;37038;50.182;8.624;2023-03-23T12:38:52;1.65;;;1.30;;
51010;SDS011;37038;50.182;8.624;2023-03-23T12:42:16;2.22;;;1.42;;
51010;SDS011;37038;50.182;8.624;2023-03-23T12:48:19;1.50;;;1.40;;
51010;SDS011;37038;50.182;8.624;2023-03-23T12:52:02;4.63;;;1.40;;
51010;SDS011;37038;50.182;8.624;2023-03-23T12:55:23;1.35;;;1.10;;
51010;SDS011;37038;50.182;8.624;2023-03-23T12:58:37;3.17;;;1.60;;
51010;SDS011;37038;50.182;8.624;2023-03-23T13:01:38;1.92;;;1.42;;
51010;SDS011;37038;50.182;8.624;2023-03-23T13:04:32;1.90;;;1.40;;
51010;SDS011;37038;50.182;8.624;2023-03-23T13:07:26;1.95;;;1.55;;
51010;SDS011;37038;50.182;8.624;2023-03-23T13:10:23;3.22;;;1.33;;
51010;SDS011;37038;50.182;8.624;2023-03-23T13:13:17;3.47;;;1.77;;
51010;SDS011;37038;50.182;8.624;2023-03-23T13:19:19;1.48;;;1.38;;
51010;SDS011;37038;50.182;8.624;2023-03-23T13:22:10;2.28;;;1.38;;
51010;SDS011;37038;50.182;8.624;2023-03-23T13:25:10;1.50;;;1.30;;
51010;SDS011;37038;50.182;8.624;2023-03-23T13:28:04;1.35;;;1.25;;
51010;SDS011;37038;50.182;8.624;2023-03-23T13:31:26;3.58;;;1.10;;
51010;SDS011;37038;50.182;8.624;2023-03-23T13:34:18;2.33;;;1.25;;
51010;SDS011;37038;50.182;8.624;2023-03-23T13:37:10;1.40;;;1.30;;
51010;SDS011;37038;50.182;8.624;2023-03-23T13:42:58;1.60;;;1.20;;
51010;SDS011;37038;50.182;8.624;2023-03-23T13:45:47;2.40;;;1.40;;
51010;SDS011;37038;50.182;8.624;2023-03-23T13:48:42;1.88;;;1.40;;
51010;SDS011;37038;50.182;8.624;2023-03-23T13:51:58;1.10;;;1.10;;
51010;SDS011;37038;50.182;8.624;2023-03-23T14:00:49;1.15;;;1.05;;
51010;SDS011;37038;50.182;8.624;2023-03-23T14:03:54;1.77;;;1.58;;
51010;SDS011;37038;50.182;8.624;2023-03-23T14:06:42;1.17;;;1.08;;
51010;SDS011;37038;50.182;8.624;2023-03-23T14:09:33;2.20;;;1.20;;
51010;SDS011;37038;50.182;8.624;2023-03-23T14:12:27;1.17;;;1.15;;
51010;SDS011;37038;50.182;8.624;2023-03-23T14:18:05;2.67;;;1.42;;
51010;SDS011;37038;50.182;8.624;2023-03-23T14:21:01;2.00;;;1.75;;
51010;SDS011;37038;50.182;8.624;2023-03-23T14:23:49;1.58;;;1.45;;
51010;SDS011;37038;50.182;8.624;2023-03-23T14:26:36;5.00;;;1.75;;
51010;SDS011;37038;50.182;8.624;2023-03-23T14:29:24;2.65;;;1.60;;
51010;SDS011;37038;50.182;8.624;2023-03-23T14:32:15;4.45;;;2.22;;
51010;SDS011;37038;50.182;8.624;2023-03-23T14:35:08;2.30;;;1.50;;
51010;SDS011;37038;50.182;8.624;2023-03-23T14:38:13;4.15;;;1.90;;
51010;SDS011;37038;50.182;8.624;2023-03-23T14:41:05;2.28;;;1.88;;
51010;SDS011;37038;50.182;8.624;2023-03-23T14:43:56;2.10;;;1.90;;
51010;SDS011;37038;50.182;8.624;2023-03-23T14:46:46;2.03;;;1.80;;
51010;SDS011;37038;50.182;8.624;2023-03-23T14:49:38;1.88;;;1.65;;
51010;SDS011;37038;50.182;8.624;2023-03-23T14:52:29;3.88;;;1.70;;
51010;SDS011;37038;50.182;8.624;2023-03-23T14:55:21;2.17;;;1.80;;
51010;SDS011;37038;50.182;8.624;2023-03-23T14:58:12;3.22;;;1.88;;
51010;SDS011;37038;50.182;8.624;2023-03-23T15:01:03;2.50;;;1.60;;
51010;SDS011;37038;50.182;8.624;2023-03-23T15:04:01;3.28;;;1.70;;
51010;SDS011;37038;50.182;8.624;2023-03-23T15:06:58;3.85;;;1.73;;
51010;SDS011;37038;50.182;8.624;2023-03-23T15:09:48;1.83;;;1.27;;
51010;SDS011;37038;50.182;8.624;2023-03-23T15:12:35;4.97;;;1.50;;
51010;SDS011;37038;50.182;8.624;2023-03-23T15:15:23;2.53;;;1.50;;
51010;SDS011;37038;50.182;8.624;2023-03-23T15:18:26;2.00;;;1.50;;
51010;SDS011;37038;50.182;8.624;2023-03-23T15:21:28;4.53;;;1.73;;
51010;SDS011;37038;50.182;8.624;2023-03-23T15:24:40;4.13;;;1.60;;
51010;SDS011;37038;50.182;8.624;2023-03-23T15:27:32;2.25;;;1.90;;
51010;SDS011;37038;50.182;8.624;2023-03-23T15:30:30;2.08;;;1.42;;
51010;SDS011;37038;50.182;8.624;2023-03-23T15:33:22;2.22;;;1.50;;
51010;SDS011;37038;50.182;8.624;2023-03-23T15:36:17;2.38;;;1.70;;
51010;SDS011;37038;50.182;8.624;2023-03-23T15:39:08;2.60;;;1.63;;
51010;SDS011;37038;50.182;8.624;2023-03-23T15:41:59;2.95;;;1.70;;
51010;SDS011;37038;50.182;8.624;2023-03-23T15:44:54;3.13;;;2.45;;
51010;SDS011;37038;50.182;8.624;2023-03-23T15:48:12;4.20;;;1.70;;
51010;SDS011;37038;50.182;8.624;2023-03-23T15:50:59;2.38;;;1.63;;
51010;SDS011;37038;50.182;8.624;2023-03-23T15:53:50;4.28;;;1.90;;
51010;SDS011;37038;50.182;8.624;2023-03-23T15:56:38;2.08;;;1.92;;
51010;SDS011;37038;50.182;8.624;2023-03-23T15:59:25;4.00;;;2.05;;
51010;SDS011;37038;50.182;8.624;2023-03-23T16:02:15;2.85;;;2.10;;
51010;SDS011;37038;50.182;8.624;2023-03-23T16:05:10;2.95;;;1.65;;
51010;SDS011;37038;50.182;8.624;2023-03-23T16:07:59;3.45;;;1.70;;
51010;SDS011;37038;50.182;8.624;2023-03-23T16:10:48;1.50;;;1.40;;
51010;SDS011;37038;50.182;8.624;2023-03-23T16:13:37;3.28;;;1.60;;
51010;SDS011;37038;50.182;8.624;2023-03-23T16:16:26;1.48;;;1.38;;
51010;SDS011;37038;50.182;8.624;2023-03-23T16:19:23;1.38;;;1.27;;
51010;SDS011;37038;50.182;8.624;2023-03-23T16:22:11;4.22;;;1.60;;
51010;SDS011;37038;50.182;8.624;2023-03-23T16:25:02;8.35;;;2.08;;
51010;SDS011;37038;50.182;8.624;2023-03-23T16:27:51;4.13;;;2.38;;
51010;SDS011;37038;50.182;8.624;2023-03-23T16:30:41;2.15;;;1.85;;
51010;SDS011;37038;50.182;8.624;2023-03-23T16:33:30;1.73;;;1.60;;
51010;SDS011;37038;50.182;8.624;2023-03-23T16:36:19;2.08;;;1.73;;
51010;SDS011;37038;50.182;8.624;2023-03-23T16:39:08;2.47;;;1.70;;
51010;SDS011;37038;50.182;8.624;2023-03-23T16:41:58;2.72;;;2.10;;
51010;SDS011;37038;50.182;8.624;2023-03-23T16:44:46;2.58;;;2.10;;
51010;SDS011;37038;50.182;8.624;2023-03-23T16:47:37;2.83;;;2.33;;
51010;SDS011;37038;50.182;8.624;2023-03-23T16:50:27;2.50;;;2.30;;
51010;SDS011;37038;50.182;8.624;2023-03-23T16:53:16;3.33;;;2.72;;
51010;SDS011;37038;50.182;8.624;2023-03-23T16:56:05;2.70;;;2.20;;
51010;SDS011;37038;50.182;8.624;2023-03-23T16:58:53;4.75;;;2.50;;
51010;SDS011;37038;50.182;8.624;2023-03-23T17:01:41;2.75;;;2.13;;
51010;SDS011;37038;50.182;8.624;2023-03-23T17:04:32;4.00;;;2.53;;
51010;SDS011;37038;50.182;8.624;2023-03-23T17:07:21;3.70;;;2.40;;
51010;SDS011;37038;50.182;8.624;2023-03-23T17:10:09;2.53;;;2.33;;
51010;SDS011;37038;50.182;8.624;2023-03-23T17:12:59;4.07;;;2.60;;
51010;SDS011;37038;50.182;8.624;2023-03-23T17:15:50;3.40;;;2.63;;
51010;SDS011;37038;50.182;8.624;2023-03-23T17:18:40;3.13;;;2.35;;
51010;SDS011;37038;50.182;8.624;2023-03-23T17:21:28;4.90;;;2.92;;
51010;SDS011;37038;50.182;8.624;2023-03-23T17:24:16;2.83;;;2.40;;
51010;SDS011;37038;50.182;8.624;2023-03-23T17:27:04;3.45;;;2.60;;
51010;SDS011;37038;50.182;8.624;2023-03-23T17:29:53;4.10;;;2.58;;
51010;SDS011;37038;50.182;8.624;2023-03-23T17:32:40;4.00;;;2.60;;
51010;SDS011;37038;50.182;8.624;2023-03-23T17:35:28;4.28;;;3.05;;
51010;SDS011;37038;50.182;8.624;2023-03-23T17:38:16;3.63;;;2.75;;
51010;SDS011;37038;50.182;8.624;2023-03-23T17:41:04;5.82;;;2.47;;
51010;SDS011;37038;50.182;8.624;2023-03-23T17:43:54;3.20;;;2.63;;
51010;SDS011;37038;50.182;8.624;2023-03-23T17:46:42;3.35;;;2.60;;
51010;SDS011;37038;50.182;8.624;2023-03-23T17:49:30;3.17;;;2.80;;
51010;SDS011;37038;50.182;8.624;2023-03-23T17:52:18;4.00;;;3.00;;
51010;SDS011;37038;50.182;8.624;2023-03-23T17:55:06;3.38;;;2.72;;
51010;SDS011;37038;50.182;8.624;2023-03-23T17:57:54;3.08;;;2.40;;
51010;SDS011;37038;50.182;8.624;2023-03-23T18:00:42;2.53;;;2.22;;
51010;SDS011;37038;50.182;8.624;2023-03-23T18:03:30;3.83;;;2.50;;
51010;SDS011;37038;50.182;8.624;2023-03-23T18:06:18;2.80;;;2.60;;
51010;SDS011;37038;50.182;8.624;2023-03-23T18:09:07;3.25;;;2.42;;
51010;SDS011;37038;50.182;8.624;2023-03-23T18:11:55;6.53;;;2.63;;
51010;SDS011;37038;50.182;8.624;2023-03-23T18:14:43;5.50;;;2.67;;
51010;SDS011;37038;50.182;8.624;2023-03-23T18:17:33;4.15;;;2.63;;
51010;SDS011;37038;50.182;8.624;2023-03-23T18:20:21;4.93;;;2.40;;
51010;SDS011;37038;50.182;8.624;2023-03-23T18:23:09;7.60;;;3.05;;
51010;SDS011;37038;50.182;8.624;2023-03-23T18:25:58;4.90;;;2.45;;
51010;SDS011;37038;50.182;8.624;2023-03-23T18:28:46;3.75;;;2.42;;
51010;SDS011;37038;50.182;8.624;2023-03-23T18:31:37;6.13;;;3.13;;
51010;SDS011;37038;50.182;8.624;2023-03-23T18:34:26;5.80;;;2.95;;
51010;SDS011;37038;50.182;8.624;2023-03-23T18:37:14;5.05;;;2.85;;
51010;SDS011;37038;50.182;8.624;2023-03-23T18:40:02;3.33;;;2.70;;